sensor_id;sensor_type;location;lat;lon;timestamp;pressure;altitude;pressure_sealevel;temperature;humidity
14041;BME280;7095;51.388;6.196;2024-02-15T00:01:09;115728.34;;;-145.32;100.00
14041;BME280;7095;51.388;6.196;2024-02-15T00:03:39;115728.34;;;-145.32;100.00
14041;BME280;7095;51.388;6.196;2024-02-15T00:06:07;115728.34;;;-145.32;100.00
14041;BME280;7095;51.388;6.196;2024-02-15T00:08:36;115728.34;;;-145.32;100.00
14041;BME280;7095;51.388;6.196;2024-02-15T00:11:04;115728.34;;;-145.32;100.00
14041;BME280;7095;51.388;6.196;2024-02-15T00:13:33;115728.34;;;-145.32;100.00
14041;BME280;7095;51.388;6.196;2024-02-15T00:16:03;115728.34;;;-145.32;100.00
14041;BME280;7095;51.388;6.196;2024-02-15T00:18:31;115728.34;;;-145.32;100.00
14041;BME280;7095;51.388;6.196;2024-02-15T00:21:01;115728.34;;;-145.32;100.00
14041;BME280;7095;51.388;6.196;2024-02-15T00:23:31;115728.34;;;-145.32;100.00
14041;BME280;7095;51.388;6.196;2024-02-15T00:25:59;115728.34;;;-145.32;100.00
14041;BME280;7095;51.388;6.196;2024-02-15T00:28:28;115728.34;;;-145.32;100.00
14041;BME280;7095;51.388;6.196;2024-02-15T00:30:56;115728.34;;;-145.32;100.00
14041;BME280;7095;51.388;6.196;2024-02-15T00:33:25;115728.34;;;-145.32;100.00
14041;BME280;7095;51.388;6.196;2024-02-15T00:35:54;115728.34;;;-145.32;100.00
14041;BME280;7095;51.388;6.196;2024-02-15T00:38:24;115728.34;;;-145.32;100.00
14041;BME280;7095;51.388;6.196;2024-02-15T00:40:52;115728.34;;;-145.32;100.00
14041;BME280;7095;51.388;6.196;2024-02-15T00:43:21;115728.34;;;-145.32;100.00
14041;BME280;7095;51.388;6.196;2024-02-15T00:45:50;115728.34;;;-145.32;100.00
14041;BME280;7095;51.388;6.196;2024-02-15T00:48:18;115728.34;;;-145.32;100.00
14041;BME280;7095;51.388;6.196;2024-02-15T00:50:47;115728.34;;;-145.32;100.00
14041;BME280;7095;51.388;6.196;2024-02-15T00:53:15;115728.34;;;-145.32;100.00
14041;BME280;7095;51.388;6.196;2024-02-15T00:55:46;115728.34;;;-145.32;100.00
14041;BME280;7095;51.388;6.196;2024-02-15T00:58:14;115728.34;;;-145.32;100.00
14041;BME280;7095;51.388;6.196;2024-02-15T01:00:43;115728.34;;;-145.32;100.00
14041;BME280;7095;51.388;6.196;2024-02-15T01:03:11;115728.34;;;-145.32;100.00
14041;BME280;7095;51.388;6.196;2024-02-15T01:05:40;115728.34;;;-145.32;100.00
14041;BME280;7095;51.388;6.196;2024-02-15T01:08:08;115728.34;;;-145.32;100.00
14041;BME280;7095;51.388;6.196;2024-02-15T01:10:37;115728.34;;;-145.32;100.00
14041;BME280;7095;51.388;6.196;2024-02-15T01:13:07;115728.34;;;-145.32;100.00
14041;BME280;7095;51.388;6.196;2024-02-15T01:15:36;115728.34;;;-145.32;100.00
14041;BME280;7095;51.388;6.196;2024-02-15T01:18:06;115728.34;;;-145.32;100.00
14041;BME280;7095;51.388;6.196;2024-02-15T01:20:35;115728.34;;;-145.32;100.00
14041;BME280;7095;51.388;6.196;2024-02-15T01:23:04;115728.34;;;-145.32;100.00
14041;BME280;7095;51.388;6.196;2024-02-15T01:25:34;115728.34;;;-145.32;100.00
14041;BME280;7095;51.388;6.196;2024-02-15T01:28:03;115728.34;;;-145.32;100.00
14041;BME280;7095;51.388;6.196;2024-02-15T01:30:33;115728.34;;;-145.32;100.00
14041;BME280;7095;51.388;6.196;2024-02-15T01:33:02;115728.34;;;-145.32;100.00
14041;BME280;7095;51.388;6.196;2024-02-15T01:35:31;115728.34;;;-145.32;100.00
14041;BME280;7095;51.388;6.196;2024-02-15T01:37:59;115728.34;;;-145.32;100.00
14041;BME280;7095;51.388;6.196;2024-02-15T01:40:28;115728.34;;;-145.32;100.00
14041;BME280;7095;51.388;6.196;2024-02-15T01:42:56;115728.34;;;-145.32;100.00
14041;BME280;7095;51.388;6.196;2024-02-15T01:45:25;115728.34;;;-145.32;100.00
14041;BME280;7095;51.388;6.196;2024-02-15T01:47:56;115728.34;;;-145.32;100.00
14041;BME280;7095;51.388;6.196;2024-02-15T01:50:25;115728.34;;;-145.32;100.00
14041;BME280;7095;51.388;6.196;2024-02-15T01:52:57;115728.34;;;-145.32;100.00
14041;BME280;7095;51.388;6.196;2024-02-15T01:55:26;115728.34;;;-145.32;100.00
14041;BME280;7095;51.388;6.196;2024-02-15T01:57:55;115728.34;;;-145.32;100.00
14041;BME280;7095;51.388;6.196;2024-02-15T02:00:24;115728.34;;;-145.32;100.00
14041;BME280;7095;51.388;6.196;2024-02-15T02:02:57;115728.34;;;-145.32;100.00
14041;BME280;7095;51.388;6.196;2024-02-15T02:05:31;115728.34;;;-145.32;100.00
14041;BME280;7095;51.388;6.196;2024-02-15T02:07:59;115728.34;;;-145.32;100.00
14041;BME280;7095;51.388;6.196;2024-02-15T02:10:31;115728.34;;;-145.32;100.00
14041;BME280;7095;51.388;6.196;2024-02-15T02:13:00;115728.34;;;-145.32;100.00
14041;BME280;7095;51.388;6.196;2024-02-15T02:15:31;115728.34;;;-145.32;100.00
14041;BME280;7095;51.388;6.196;2024-02-15T02:18:01;115728.34;;;-145.32;100.00
14041;BME280;7095;51.388;6.196;2024-02-15T02:20:30;115728.34;;;-145.32;100.00
14041;BME280;7095;51.388;6.196;2024-02-15T02:23:03;115728.34;;;-145.32;100.00
14041;BME280;7095;51.388;6.196;2024-02-15T02:25:36;115728.34;;;-145.32;100.00
14041;BME280;7095;51.388;6.196;2024-02-15T02:28:06;115728.34;;;-145.32;100.00
14041;BME280;7095;51.388;6.196;2024-02-15T02:30:35;115728.34;;;-145.32;100.00
14041;BME280;7095;51.388;6.196;2024-02-15T02:33:04;115728.34;;;-145.32;100.00
14041;BME280;7095;51.388;6.196;2024-02-15T02:35:34;115728.34;;;-145.32;100.00
14041;BME280;7095;51.388;6.196;2024-02-15T02:38:03;115728.34;;;-145.32;100.00
14041;BME280;7095;51.388;6.196;2024-02-15T02:40:32;115728.34;;;-145.32;100.00
14041;BME280;7095;51.388;6.196;2024-02-15T02:43:06;115728.34;;;-145.32;100.00
14041;BME280;7095;51.388;6.196;2024-02-15T02:45:35;115728.34;;;-145.32;100.00
14041;BME280;7095;51.388;6.196;2024-02-15T02:48:04;115728.34;;;-145.32;100.00
14041;BME280;7095;51.388;6.196;2024-02-15T02:50:34;115728.34;;;-145.32;100.00
14041;BME280;7095;51.388;6.196;2024-02-15T02:53:02;115728.34;;;-145.32;100.00
14041;BME280;7095;51.388;6.196;2024-02-15T02:55:32;115728.34;;;-145.32;100.00
14041;BME280;7095;51.388;6.196;2024-02-15T02:58:00;115728.34;;;-145.32;100.00
14041;BME280;7095;51.388;6.196;2024-02-15T03:00:30;115728.34;;;-145.32;100.00
14041;BME280;7095;51.388;6.196;2024-02-15T03:02:59;115728.34;;;-145.32;100.00
14041;BME280;7095;51.388;6.196;2024-02-15T03:05:28;115728.34;;;-145.32;100.00
14041;BME280;7095;51.388;6.196;2024-02-15T03:07:56;115728.34;;;-145.32;100.00
14041;BME280;7095;51.388;6.196;2024-02-15T03:10:25;115728.34;;;-145.32;100.00
14041;BME280;7095;51.388;6.196;2024-02-15T03:12:53;115728.34;;;-145.32;100.00
14041;BME280;7095;51.388;6.196;2024-02-15T03:15:22;115728.34;;;-145.32;100.00
14041;BME280;7095;51.388;6.196;2024-02-15T03:17:52;115728.34;;;-145.32;100.00
14041;BME280;7095;51.388;6.196;2024-02-15T03:20:20;115728.34;;;-145.32;100.00
14041;BME280;7095;51.388;6.196;2024-02-15T03:22:51;115728.34;;;-145.32;100.00
14041;BME280;7095;51.388;6.196;2024-02-15T03:25:20;115728.34;;;-145.32;100.00
14041;BME280;7095;51.388;6.196;2024-02-15T03:27:51;115728.34;;;-145.32;100.00
14041;BME280;7095;51.388;6.196;2024-02-15T03:30:20;115728.34;;;-145.32;100.00
14041;BME280;7095;51.388;6.196;2024-02-15T03:32:49;115728.34;;;-145.32;100.00
14041;BME280;7095;51.388;6.196;2024-02-15T03:35:22;115728.34;;;-145.32;100.00
14041;BME280;7095;51.388;6.196;2024-02-15T03:37:51;115728.34;;;-145.32;100.00
14041;BME280;7095;51.388;6.196;2024-02-15T03:40:21;115728.34;;;-145.32;100.00
14041;BME280;7095;51.388;6.196;2024-02-15T03:42:51;115728.34;;;-145.32;100.00
14041;BME280;7095;51.388;6.196;2024-02-15T03:45:19;115728.34;;;-145.32;100.00
14041;BME280;7095;51.388;6.196;2024-02-15T03:47:52;115728.34;;;-145.32;100.00
14041;BME280;7095;51.388;6.196;2024-02-15T03:50:23;115728.34;;;-145.32;100.00
14041;BME280;7095;51.388;6.196;2024-02-15T03:52:51;115728.34;;;-145.32;100.00
14041;BME280;7095;51.388;6.196;2024-02-15T03:55:20;115728.34;;;-145.32;100.00
14041;BME280;7095;51.388;6.196;2024-02-15T03:57:49;115728.34;;;-145.32;100.00
14041;BME280;7095;51.388;6.196;2024-02-15T04:00:18;115728.34;;;-145.32;100.00
14041;BME280;7095;51.388;6.196;2024-02-15T04:02:49;115728.34;;;-145.32;100.00
14041;BME280;7095;51.388;6.196;2024-02-15T04:05:18;115728.34;;;-145.32;100.00
14041;BME280;7095;51.388;6.196;2024-02-15T04:07:52;115728.34;;;-145.32;100.00
14041;BME280;7095;51.388;6.196;2024-02-15T04:10:21;115728.34;;;-145.32;100.00
14041;BME280;7095;51.388;6.196;2024-02-15T04:12:56;115728.34;;;-145.32;100.00
14041;BME280;7095;51.388;6.196;2024-02-15T04:15:26;115728.34;;;-145.32;100.00
14041;BME280;7095;51.388;6.196;2024-02-15T04:17:54;115728.34;;;-145.32;100.00
14041;BME280;7095;51.388;6.196;2024-02-15T04:20:24;115728.34;;;-145.32;100.00
14041;BME280;7095;51.388;6.196;2024-02-15T04:22:55;115728.34;;;-145.32;100.00
14041;BME280;7095;51.388;6.196;2024-02-15T04:25:24;115728.34;;;-145.32;100.00
14041;BME280;7095;51.388;6.196;2024-02-15T04:27:55;115728.34;;;-145.32;100.00
14041;BME280;7095;51.388;6.196;2024-02-15T04:30:25;115728.34;;;-145.32;100.00
14041;BME280;7095;51.388;6.196;2024-02-15T04:32:53;115728.34;;;-145.32;100.00
14041;BME280;7095;51.388;6.196;2024-02-15T04:35:22;115728.34;;;-145.32;100.00
14041;BME280;7095;51.388;6.196;2024-02-15T04:37:51;115728.34;;;-145.32;100.00
14041;BME280;7095;51.388;6.196;2024-02-15T04:40:21;115728.34;;;-145.32;100.00
14041;BME280;7095;51.388;6.196;2024-02-15T04:42:50;115728.34;;;-145.32;100.00
14041;BME280;7095;51.388;6.196;2024-02-15T04:45:19;115728.34;;;-145.32;100.00
14041;BME280;7095;51.388;6.196;2024-02-15T04:47:59;115728.34;;;-145.32;100.00
14041;BME280;7095;51.388;6.196;2024-02-15T04:50:29;115728.34;;;-145.32;100.00
14041;BME280;7095;51.388;6.196;2024-02-15T04:52:57;115728.34;;;-145.32;100.00
14041;BME280;7095;51.388;6.196;2024-02-15T04:55:27;115728.34;;;-145.32;100.00
14041;BME280;7095;51.388;6.196;2024-02-15T04:57:58;115728.34;;;-145.32;100.00
14041;BME280;7095;51.388;6.196;2024-02-15T05:00:27;115728.34;;;-145.32;100.00
14041;BME280;7095;51.388;6.196;2024-02-15T05:02:55;115728.34;;;-145.32;100.00
14041;BME280;7095;51.388;6.196;2024-02-15T05:05:25;115728.34;;;-145.32;100.00
14041;BME280;7095;51.388;6.196;2024-02-15T05:07:54;115728.34;;;-145.32;100.00
14041;BME280;7095;51.388;6.196;2024-02-15T05:10:23;115728.34;;;-145.32;100.00
14041;BME280;7095;51.388;6.196;2024-02-15T05:12:53;115728.34;;;-145.32;100.00
14041;BME280;7095;51.388;6.196;2024-02-15T05:15:22;115728.34;;;-145.32;100.00
14041;BME280;7095;51.388;6.196;2024-02-15T05:17:52;115728.34;;;-145.32;100.00
14041;BME280;7095;51.388;6.196;2024-02-15T05:20:21;115728.34;;;-145.32;100.00
14041;BME280;7095;51.388;6.196;2024-02-15T05:22:52;115728.34;;;-145.32;100.00
14041;BME280;7095;51.388;6.196;2024-02-15T05:25:21;115728.34;;;-145.32;100.00
14041;BME280;7095;51.388;6.196;2024-02-15T05:27:54;115728.34;;;-145.32;100.00
14041;BME280;7095;51.388;6.196;2024-02-15T05:30:24;115728.34;;;-145.32;100.00
14041;BME280;7095;51.388;6.196;2024-02-15T05:32:53;115728.34;;;-145.32;100.00
14041;BME280;7095;51.388;6.196;2024-02-15T05:35:24;115728.34;;;-145.32;100.00
14041;BME280;7095;51.388;6.196;2024-02-15T05:37:54;115728.34;;;-145.32;100.00
14041;BME280;7095;51.388;6.196;2024-02-15T05:40:23;115728.34;;;-145.32;100.00
14041;BME280;7095;51.388;6.196;2024-02-15T05:42:56;115728.34;;;-145.32;100.00
14041;BME280;7095;51.388;6.196;2024-02-15T05:45:30;115728.34;;;-145.32;100.00
14041;BME280;7095;51.388;6.196;2024-02-15T05:48:03;115728.34;;;-145.32;100.00
14041;BME280;7095;51.388;6.196;2024-02-15T05:50:35;115728.34;;;-145.32;100.00
14041;BME280;7095;51.388;6.196;2024-02-15T05:53:03;115728.34;;;-145.32;100.00
14041;BME280;7095;51.388;6.196;2024-02-15T05:55:32;115728.34;;;-145.32;100.00
14041;BME280;7095;51.388;6.196;2024-02-15T05:58:03;115728.34;;;-145.32;100.00
14041;BME280;7095;51.388;6.196;2024-02-15T06:00:31;115728.34;;;-145.32;100.00
14041;BME280;7095;51.388;6.196;2024-02-15T06:03:01;115728.34;;;-145.32;100.00
14041;BME280;7095;51.388;6.196;2024-02-15T06:05:30;115728.34;;;-145.32;100.00
14041;BME280;7095;51.388;6.196;2024-02-15T06:07:59;115728.34;;;-145.32;100.00
14041;BME280;7095;51.388;6.196;2024-02-15T06:10:28;115728.34;;;-145.32;100.00
14041;BME280;7095;51.388;6.196;2024-02-15T06:12:57;115728.34;;;-145.32;100.00
14041;BME280;7095;51.388;6.196;2024-02-15T06:15:27;115728.34;;;-145.32;100.00
14041;BME280;7095;51.388;6.196;2024-02-15T06:17:56;115728.34;;;-145.32;100.00
14041;BME280;7095;51.388;6.196;2024-02-15T06:20:25;115728.34;;;-145.32;100.00
14041;BME280;7095;51.388;6.196;2024-02-15T06:22:56;115728.34;;;-145.32;100.00
14041;BME280;7095;51.388;6.196;2024-02-15T06:25:24;115728.34;;;-145.32;100.00
14041;BME280;7095;51.388;6.196;2024-02-15T06:27:53;115728.34;;;-145.32;100.00
14041;BME280;7095;51.388;6.196;2024-02-15T06:30:28;115728.34;;;-145.32;100.00
14041;BME280;7095;51.388;6.196;2024-02-15T06:33:16;115728.34;;;-145.32;100.00
14041;BME280;7095;51.388;6.196;2024-02-15T06:36:06;115728.34;;;-145.32;100.00
14041;BME280;7095;51.388;6.196;2024-02-15T06:39:07;115728.34;;;-145.32;100.00
14041;BME280;7095;51.388;6.196;2024-02-15T06:41:53;115728.34;;;-145.32;100.00
14041;BME280;7095;51.388;6.196;2024-02-15T06:44:21;115728.34;;;-145.32;100.00
14041;BME280;7095;51.388;6.196;2024-02-15T06:46:52;115728.34;;;-145.32;100.00
14041;BME280;7095;51.388;6.196;2024-02-15T06:49:21;115728.34;;;-145.32;100.00
14041;BME280;7095;51.388;6.196;2024-02-15T06:51:49;115728.34;;;-145.32;100.00
14041;BME280;7095;51.388;6.196;2024-02-15T06:54:18;115728.34;;;-145.32;100.00
14041;BME280;7095;51.388;6.196;2024-02-15T06:56:47;115728.34;;;-145.32;100.00
14041;BME280;7095;51.388;6.196;2024-02-15T06:59:15;115728.34;;;-145.32;100.00
14041;BME280;7095;51.388;6.196;2024-02-15T07:01:45;115728.34;;;-145.32;100.00
14041;BME280;7095;51.388;6.196;2024-02-15T07:04:15;115728.34;;;-145.32;100.00
14041;BME280;7095;51.388;6.196;2024-02-15T07:06:43;115728.34;;;-145.32;100.00
14041;BME280;7095;51.388;6.196;2024-02-15T07:09:15;115728.34;;;-145.32;100.00
14041;BME280;7095;51.388;6.196;2024-02-15T07:11:45;115728.34;;;-145.32;100.00
14041;BME280;7095;51.388;6.196;2024-02-15T07:14:18;115728.34;;;-145.32;100.00
14041;BME280;7095;51.388;6.196;2024-02-15T07:16:47;115728.34;;;-145.32;100.00
14041;BME280;7095;51.388;6.196;2024-02-15T07:19:18;115728.34;;;-145.32;100.00
14041;BME280;7095;51.388;6.196;2024-02-15T07:21:48;115728.34;;;-145.32;100.00
14041;BME280;7095;51.388;6.196;2024-02-15T07:24:16;115728.34;;;-145.32;100.00
14041;BME280;7095;51.388;6.196;2024-02-15T07:26:46;115728.34;;;-145.32;100.00
14041;BME280;7095;51.388;6.196;2024-02-15T07:29:15;115728.34;;;-145.32;100.00
14041;BME280;7095;51.388;6.196;2024-02-15T07:31:43;115728.34;;;-145.32;100.00
14041;BME280;7095;51.388;6.196;2024-02-15T07:34:12;115728.34;;;-145.32;100.00
14041;BME280;7095;51.388;6.196;2024-02-15T07:36:43;115728.34;;;-145.32;100.00
14041;BME280;7095;51.388;6.196;2024-02-15T07:39:12;115728.34;;;-145.32;100.00
14041;BME280;7095;51.388;6.196;2024-02-15T07:41:51;115728.34;;;-145.32;100.00
14041;BME280;7095;51.388;6.196;2024-02-15T07:44:19;115728.34;;;-145.32;100.00
14041;BME280;7095;51.388;6.196;2024-02-15T07:46:49;115728.34;;;-145.32;100.00
14041;BME280;7095;51.388;6.196;2024-02-15T07:49:17;115728.34;;;-145.32;100.00
14041;BME280;7095;51.388;6.196;2024-02-15T07:51:47;115728.34;;;-145.32;100.00
14041;BME280;7095;51.388;6.196;2024-02-15T07:54:20;115728.34;;;-145.32;100.00
14041;BME280;7095;51.388;6.196;2024-02-15T07:56:49;115728.34;;;-145.32;100.00
14041;BME280;7095;51.388;6.196;2024-02-15T07:59:19;115728.34;;;-145.32;100.00
14041;BME280;7095;51.388;6.196;2024-02-15T08:01:47;115728.34;;;-145.32;100.00
14041;BME280;7095;51.388;6.196;2024-02-15T08:04:18;115728.34;;;-145.32;100.00
14041;BME280;7095;51.388;6.196;2024-02-15T08:06:49;115728.34;;;-145.32;100.00
14041;BME280;7095;51.388;6.196;2024-02-15T08:09:19;115728.34;;;-145.32;100.00
14041;BME280;7095;51.388;6.196;2024-02-15T08:11:51;115728.34;;;-145.32;100.00
14041;BME280;7095;51.388;6.196;2024-02-15T08:14:19;115728.34;;;-145.32;100.00
14041;BME280;7095;51.388;6.196;2024-02-15T08:16:48;115728.34;;;-145.32;100.00
14041;BME280;7095;51.388;6.196;2024-02-15T08:19:17;115728.34;;;-145.32;100.00
14041;BME280;7095;51.388;6.196;2024-02-15T08:21:46;115728.34;;;-145.32;100.00
14041;BME280;7095;51.388;6.196;2024-02-15T08:24:19;115728.34;;;-145.32;100.00
14041;BME280;7095;51.388;6.196;2024-02-15T08:26:50;115728.34;;;-145.32;100.00
14041;BME280;7095;51.388;6.196;2024-02-15T08:29:19;115728.34;;;-145.32;100.00
14041;BME280;7095;51.388;6.196;2024-02-15T08:31:48;115728.34;;;-145.32;100.00
14041;BME280;7095;51.388;6.196;2024-02-15T08:34:16;115728.34;;;-145.32;100.00
14041;BME280;7095;51.388;6.196;2024-02-15T08:36:47;115728.34;;;-145.32;100.00
14041;BME280;7095;51.388;6.196;2024-02-15T08:39:16;115728.34;;;-145.32;100.00
14041;BME280;7095;51.388;6.196;2024-02-15T08:41:46;115728.34;;;-145.32;100.00
14041;BME280;7095;51.388;6.196;2024-02-15T08:44:16;115728.34;;;-145.32;100.00
14041;BME280;7095;51.388;6.196;2024-02-15T08:46:47;115728.34;;;-145.32;100.00
14041;BME280;7095;51.388;6.196;2024-02-15T08:49:19;115728.34;;;-145.32;100.00
14041;BME280;7095;51.388;6.196;2024-02-15T08:51:49;115728.34;;;-145.32;100.00
14041;BME280;7095;51.388;6.196;2024-02-15T08:54:17;115728.34;;;-145.32;100.00
14041;BME280;7095;51.388;6.196;2024-02-15T08:56:47;115728.34;;;-145.32;100.00
14041;BME280;7095;51.388;6.196;2024-02-15T08:59:16;115728.34;;;-145.32;100.00
14041;BME280;7095;51.388;6.196;2024-02-15T09:01:45;115728.34;;;-145.32;100.00
14041;BME280;7095;51.388;6.196;2024-02-15T09:04:13;115728.34;;;-145.32;100.00
14041;BME280;7095;51.388;6.196;2024-02-15T09:06:44;115728.34;;;-145.32;100.00
14041;BME280;7095;51.388;6.196;2024-02-15T09:09:13;115728.34;;;-145.32;100.00
14041;BME280;7095;51.388;6.196;2024-02-15T09:11:41;115728.34;;;-145.32;100.00
14041;BME280;7095;51.388;6.196;2024-02-15T09:14:12;115728.34;;;-145.32;100.00
14041;BME280;7095;51.388;6.196;2024-02-15T09:16:40;115728.34;;;-145.32;100.00
14041;BME280;7095;51.388;6.196;2024-02-15T09:19:09;115728.34;;;-145.32;100.00
14041;BME280;7095;51.388;6.196;2024-02-15T09:21:38;115728.34;;;-145.32;100.00
14041;BME280;7095;51.388;6.196;2024-02-15T09:24:06;115728.34;;;-145.32;100.00
14041;BME280;7095;51.388;6.196;2024-02-15T09:26:35;115728.34;;;-145.32;100.00
14041;BME280;7095;51.388;6.196;2024-02-15T09:29:03;115728.34;;;-145.32;100.00
14041;BME280;7095;51.388;6.196;2024-02-15T09:31:36;115728.34;;;-145.32;100.00
14041;BME280;7095;51.388;6.196;2024-02-15T09:34:04;115728.34;;;-145.32;100.00
14041;BME280;7095;51.388;6.196;2024-02-15T09:36:35;115728.34;;;-145.32;100.00
14041;BME280;7095;51.388;6.196;2024-02-15T09:39:05;115728.34;;;-145.32;100.00
14041;BME280;7095;51.388;6.196;2024-02-15T09:41:33;115728.34;;;-145.32;100.00
14041;BME280;7095;51.388;6.196;2024-02-15T09:44:02;115728.34;;;-145.32;100.00
14041;BME280;7095;51.388;6.196;2024-02-15T09:46:33;115728.34;;;-145.32;100.00
14041;BME280;7095;51.388;6.196;2024-02-15T09:49:05;115728.34;;;-145.32;100.00
14041;BME280;7095;51.388;6.196;2024-02-15T09:51:35;115728.34;;;-145.32;100.00
14041;BME280;7095;51.388;6.196;2024-02-15T09:54:05;115728.34;;;-145.32;100.00
14041;BME280;7095;51.388;6.196;2024-02-15T09:56:36;115728.34;;;-145.32;100.00
14041;BME280;7095;51.388;6.196;2024-02-15T09:59:05;115728.34;;;-145.32;100.00
14041;BME280;7095;51.388;6.196;2024-02-15T10:01:34;115728.34;;;-145.32;100.00
14041;BME280;7095;51.388;6.196;2024-02-15T10:04:06;115728.34;;;-145.32;100.00
14041;BME280;7095;51.388;6.196;2024-02-15T10:06:35;115728.34;;;-145.32;100.00
14041;BME280;7095;51.388;6.196;2024-02-15T10:09:23;115728.34;;;-145.32;100.00
14041;BME280;7095;51.388;6.196;2024-02-15T10:11:56;115728.34;;;-145.32;100.00
14041;BME280;7095;51.388;6.196;2024-02-15T10:14:26;115728.34;;;-145.32;100.00
14041;BME280;7095;51.388;6.196;2024-02-15T10:16:56;115728.34;;;-145.32;100.00
14041;BME280;7095;51.388;6.196;2024-02-15T10:19:26;115728.34;;;-145.32;100.00
14041;BME280;7095;51.388;6.196;2024-02-15T10:22:05;115728.34;;;-145.32;100.00
14041;BME280;7095;51.388;6.196;2024-02-15T10:24:36;115728.34;;;-145.32;100.00
14041;BME280;7095;51.388;6.196;2024-02-15T10:27:07;115728.34;;;-145.32;100.00
14041;BME280;7095;51.388;6.196;2024-02-15T10:29:37;115728.34;;;-145.32;100.00
14041;BME280;7095;51.388;6.196;2024-02-15T10:32:07;115728.34;;;-145.32;100.00
14041;BME280;7095;51.388;6.196;2024-02-15T10:34:44;115728.34;;;-145.32;100.00
14041;BME280;7095;51.388;6.196;2024-02-15T10:37:14;115728.34;;;-145.32;100.00
14041;BME280;7095;51.388;6.196;2024-02-15T10:39:44;115728.34;;;-145.32;100.00
14041;BME280;7095;51.388;6.196;2024-02-15T10:42:16;115728.34;;;-145.32;100.00
14041;BME280;7095;51.388;6.196;2024-02-15T10:44:46;115728.34;;;-145.32;100.00
14041;BME280;7095;51.388;6.196;2024-02-15T10:47:16;115728.34;;;-145.32;100.00
14041;BME280;7095;51.388;6.196;2024-02-15T10:49:49;115728.34;;;-145.32;100.00
14041;BME280;7095;51.388;6.196;2024-02-15T10:52:19;115728.34;;;-145.32;100.00
14041;BME280;7095;51.388;6.196;2024-02-15T10:54:52;115728.34;;;-145.32;100.00
14041;BME280;7095;51.388;6.196;2024-02-15T10:57:28;115728.34;;;-145.32;100.00
14041;BME280;7095;51.388;6.196;2024-02-15T10:59:59;115728.34;;;-145.32;100.00
14041;BME280;7095;51.388;6.196;2024-02-15T11:02:38;115728.34;;;-145.32;100.00
14041;BME280;7095;51.388;6.196;2024-02-15T11:05:13;115728.34;;;-145.32;100.00
14041;BME280;7095;51.388;6.196;2024-02-15T11:07:48;115728.34;;;-145.32;100.00
14041;BME280;7095;51.388;6.196;2024-02-15T11:10:17;115726.31;;;-145.32;100.00
14041;BME280;7095;51.388;6.196;2024-02-15T11:12:45;114949.09;;;-145.32;100.00
14041;BME280;7095;51.388;6.196;2024-02-15T11:15:43;113136.22;;;-145.32;100.00
14041;BME280;7095;51.388;6.196;2024-02-15T11:18:46;110548.00;;;-145.32;100.00
14041;BME280;7095;51.388;6.196;2024-02-15T11:21:53;110289.28;;;-145.32;100.00
14041;BME280;7095;51.388;6.196;2024-02-15T11:24:25;107703.22;;;-145.32;100.00
14041;BME280;7095;51.388;6.196;2024-02-15T11:26:58;107186.22;;;-145.32;100.00
14041;BME280;7095;51.388;6.196;2024-02-15T11:29:48;102794.91;;;-145.32;100.00
14041;BME280;7095;51.388;6.196;2024-02-15T11:32:40;99698.47;;;-145.32;100.00
14041;BME280;7095;51.388;6.196;2024-02-15T11:35:12;102536.75;;;-145.32;100.00
14041;BME280;7095;51.388;6.196;2024-02-15T11:37:52;96862.50;;;-145.32;100.00
14041;BME280;7095;51.388;6.196;2024-02-15T11:40:23;98409.13;;;-145.32;100.00
14041;BME280;7095;51.388;6.196;2024-02-15T11:42:52;96604.81;;;-145.32;100.00
14041;BME280;7095;51.388;6.196;2024-02-15T11:45:21;97377.97;;;-145.32;100.00
14041;BME280;7095;51.388;6.196;2024-02-15T11:47:52;92226.81;;;-145.32;100.00
14041;BME280;7095;51.388;6.196;2024-02-15T11:50:22;88368.50;;;-145.32;100.00
14041;BME280;7095;51.388;6.196;2024-02-15T11:53:02;79638.84;;;-145.32;100.00
14041;BME280;7095;51.388;6.196;2024-02-15T11:55:33;83744.16;;;-145.32;100.00
14041;BME280;7095;51.388;6.196;2024-02-15T11:58:03;83487.44;;;-145.32;100.00
14041;BME280;7095;51.388;6.196;2024-02-15T12:00:44;77075.53;;;-145.32;100.00
14041;BME280;7095;51.388;6.196;2024-02-15T12:03:36;76819.28;;;-145.32;100.00
14041;BME280;7095;51.388;6.196;2024-02-15T12:06:34;76050.72;;;-145.32;100.00
14041;BME280;7095;51.388;6.196;2024-02-15T12:09:22;74514.09;;;-145.32;100.00
14041;BME280;7095;51.388;6.196;2024-02-15T12:12:09;71954.59;;;-145.32;100.00
14041;BME280;7095;51.388;6.196;2024-02-15T12:14:58;67571.88;;;-145.32;100.00
14041;BME280;7095;51.388;6.196;2024-02-15T12:17:46;68039.06;;;-145.32;100.00
14041;BME280;7095;51.388;6.196;2024-02-15T12:20:34;65338.75;;;-145.32;100.00
14041;BME280;7095;51.388;6.196;2024-02-15T12:23:03;63418.09;;;-145.32;100.00
14041;BME280;7095;51.388;6.196;2024-02-15T12:25:37;60633.81;;;-145.32;100.00
14041;BME280;7095;51.388;6.196;2024-02-15T12:28:06;59829.03;;;-145.32;100.00
14041;BME280;7095;51.388;6.196;2024-02-15T12:30:35;57995.09;;;-145.32;100.00
14041;BME280;7095;51.388;6.196;2024-02-15T12:33:10;56892.44;;;-145.32;100.00
14041;BME280;7095;51.388;6.196;2024-02-15T12:35:40;57264.59;;;-145.32;100.00
14041;BME280;7095;51.388;6.196;2024-02-15T12:38:12;56267.63;;;-145.32;100.00
14041;BME280;7095;51.388;6.196;2024-02-15T12:40:46;55810.03;;;-145.32;100.00
14041;BME280;7095;51.388;6.196;2024-02-15T12:43:15;56462.59;;;-145.32;100.00
14041;BME280;7095;51.388;6.196;2024-02-15T12:45:44;55408.19;;;-145.32;100.00
14041;BME280;7095;51.388;6.196;2024-02-15T12:48:13;55048.16;;;-145.32;100.00
14041;BME280;7095;51.388;6.196;2024-02-15T12:50:45;54895.00;;;-145.32;100.00